sensor_id;sensor_type;location;lat;lon;timestamp;P1;durP1;ratioP1;P2;durP2;ratioP2
43620;SDS011;29213;50.770;7.298;2023-08-17T00:00:18;5.43;;;2.13;;
43620;SDS011;29213;50.770;7.298;2023-08-17T00:02:44;4.07;;;2.42;;
43620;SDS011;29213;50.770;7.298;2023-08-17T00:05:10;5.85;;;2.35;;
43620;SDS011;29213;50.770;7.298;2023-08-17T00:07:35;3.80;;;2.28;;
43620;SDS011;29213;50.770;7.298;2023-08-17T00:10:01;4.65;;;2.08;;
43620;SDS011;29213;50.770;7.298;2023-08-17T00:12:27;7.47;;;2.20;;
43620;SDS011;29213;50.770;7.298;2023-08-17T00:14:53;7.40;;;2.10;;
43620;SDS011;29213;50.770;7.298;2023-08-17T00:17:19;5.70;;;1.98;;
43620;SDS011;29213;50.770;7.298;2023-08-17T00:19:45;6.90;;;2.20;;
43620;SDS011;29213;50.770;7.298;2023-08-17T00:22:11;3.90;;;2.10;;
43620;SDS011;29213;50.770;7.298;2023-08-17T00:24:36;4.80;;;2.10;;
43620;SDS011;29213;50.770;7.298;2023-08-17T00:27:02;4.20;;;2.15;;
43620;SDS011;29213;50.770;7.298;2023-08-17T00:29:29;5.55;;;2.13;;
43620;SDS011;29213;50.770;7.298;2023-08-17T00:31:54;4.63;;;2.33;;
43620;SDS011;29213;50.770;7.298;2023-08-17T00:34:20;3.63;;;2.13;;
43620;SDS011;29213;50.770;7.298;2023-08-17T00:36:45;4.88;;;2.63;;
43620;SDS011;29213;50.770;7.298;2023-08-17T00:39:10;8.32;;;3.20;;
43620;SDS011;29213;50.770;7.298;2023-08-17T00:41:36;5.50;;;3.03;;
43620;SDS011;29213;50.770;7.298;2023-08-17T00:44:01;8.50;;;3.40;;
43620;SDS011;29213;50.770;7.298;2023-08-17T00:46:27;7.90;;;4.07;;
43620;SDS011;29213;50.770;7.298;2023-08-17T00:48:53;8.07;;;3.95;;
43620;SDS011;29213;50.770;7.298;2023-08-17T00:51:21;10.15;;;4.13;;
43620;SDS011;29213;50.770;7.298;2023-08-17T00:53:49;8.10;;;4.20;;
43620;SDS011;29213;50.770;7.298;2023-08-17T00:56:19;7.22;;;3.80;;
43620;SDS011;29213;50.770;7.298;2023-08-17T00:58:46;7.43;;;3.70;;
43620;SDS011;29213;50.770;7.298;2023-08-17T01:01:12;9.88;;;3.67;;
43620;SDS011;29213;50.770;7.298;2023-08-17T01:03:38;11.15;;;4.30;;
43620;SDS011;29213;50.770;7.298;2023-08-17T01:06:05;7.18;;;3.72;;
43620;SDS011;29213;50.770;7.298;2023-08-17T01:08:31;9.85;;;3.88;;
43620;SDS011;29213;50.770;7.298;2023-08-17T01:16:09;9.32;;;4.40;;
43620;SDS011;29213;50.770;7.298;2023-08-17T01:18:40;9.63;;;5.30;;
43620;SDS011;29213;50.770;7.298;2023-08-17T01:21:06;11.38;;;5.45;;
43620;SDS011;29213;50.770;7.298;2023-08-17T01:23:35;9.75;;;4.47;;
43620;SDS011;29213;50.770;7.298;2023-08-17T01:26:00;11.15;;;5.28;;
43620;SDS011;29213;50.770;7.298;2023-08-17T01:28:25;16.98;;;7.68;;
43620;SDS011;29213;50.770;7.298;2023-08-17T01:33:31;14.50;;;6.68;;
43620;SDS011;29213;50.770;7.298;2023-08-17T01:38:36;10.70;;;5.45;;
43620;SDS011;29213;50.770;7.298;2023-08-17T01:41:05;10.15;;;5.45;;
43620;SDS011;29213;50.770;7.298;2023-08-17T01:43:32;11.38;;;5.80;;
43620;SDS011;29213;50.770;7.298;2023-08-17T01:45:59;12.13;;;6.20;;
43620;SDS011;29213;50.770;7.298;2023-08-17T01:48:25;15.00;;;6.95;;
43620;SDS011;29213;50.770;7.298;2023-08-17T01:50:50;14.38;;;7.72;;
43620;SDS011;29213;50.770;7.298;2023-08-17T01:53:16;15.30;;;7.28;;
43620;SDS011;29213;50.770;7.298;2023-08-17T01:55:41;12.05;;;6.25;;
43620;SDS011;29213;50.770;7.298;2023-08-17T01:58:06;10.85;;;5.70;;
43620;SDS011;29213;50.770;7.298;2023-08-17T02:00:32;12.80;;;5.43;;
43620;SDS011;29213;50.770;7.298;2023-08-17T02:02:57;11.05;;;4.45;;
43620;SDS011;29213;50.770;7.298;2023-08-17T02:05:23;8.60;;;4.05;;
43620;SDS011;29213;50.770;7.298;2023-08-17T02:07:48;5.90;;;3.45;;
43620;SDS011;29213;50.770;7.298;2023-08-17T02:10:13;7.55;;;3.30;;
43620;SDS011;29213;50.770;7.298;2023-08-17T02:12:39;6.43;;;3.63;;
43620;SDS011;29213;50.770;7.298;2023-08-17T02:15:04;6.53;;;3.80;;
43620;SDS011;29213;50.770;7.298;2023-08-17T02:17:30;8.63;;;4.20;;
43620;SDS011;29213;50.770;7.298;2023-08-17T02:19:55;7.20;;;3.92;;
43620;SDS011;29213;50.770;7.298;2023-08-17T02:22:21;7.65;;;3.90;;
43620;SDS011;29213;50.770;7.298;2023-08-17T02:24:46;7.07;;;4.10;;
43620;SDS011;29213;50.770;7.298;2023-08-17T02:27:12;7.68;;;4.40;;
43620;SDS011;29213;50.770;7.298;2023-08-17T02:29:37;11.13;;;4.38;;
43620;SDS011;29213;50.770;7.298;2023-08-17T02:32:03;7.40;;;4.50;;
43620;SDS011;29213;50.770;7.298;2023-08-17T02:34:29;10.65;;;4.80;;
43620;SDS011;29213;50.770;7.298;2023-08-17T02:36:54;7.45;;;4.65;;
43620;SDS011;29213;50.770;7.298;2023-08-17T02:39:20;9.13;;;4.40;;
43620;SDS011;29213;50.770;7.298;2023-08-17T02:41:45;7.75;;;4.38;;
43620;SDS011;29213;50.770;7.298;2023-08-17T02:44:13;6.13;;;4.20;;
43620;SDS011;29213;50.770;7.298;2023-08-17T02:46:39;6.78;;;4.28;;
43620;SDS011;29213;50.770;7.298;2023-08-17T02:49:04;6.43;;;3.92;;
43620;SDS011;29213;50.770;7.298;2023-08-17T02:51:30;6.93;;;4.22;;
43620;SDS011;29213;50.770;7.298;2023-08-17T02:53:55;6.95;;;5.00;;
43620;SDS011;29213;50.770;7.298;2023-08-17T02:56:20;7.65;;;5.28;;
43620;SDS011;29213;50.770;7.298;2023-08-17T02:58:46;7.65;;;5.32;;
43620;SDS011;29213;50.770;7.298;2023-08-17T03:01:11;10.68;;;6.82;;
43620;SDS011;29213;50.770;7.298;2023-08-17T03:03:37;11.05;;;6.93;;
43620;SDS011;29213;50.770;7.298;2023-08-17T03:06:02;9.68;;;6.43;;
43620;SDS011;29213;50.770;7.298;2023-08-17T03:08:28;10.07;;;6.63;;
43620;SDS011;29213;50.770;7.298;2023-08-17T03:10:53;10.10;;;6.40;;
43620;SDS011;29213;50.770;7.298;2023-08-17T03:13:19;10.38;;;6.43;;
43620;SDS011;29213;50.770;7.298;2023-08-17T03:15:44;13.63;;;7.38;;
43620;SDS011;29213;50.770;7.298;2023-08-17T03:18:09;10.35;;;6.25;;
43620;SDS011;29213;50.770;7.298;2023-08-17T03:20:35;11.57;;;6.28;;
43620;SDS011;29213;50.770;7.298;2023-08-17T03:23:00;9.27;;;6.50;;
43620;SDS011;29213;50.770;7.298;2023-08-17T03:25:26;10.20;;;6.28;;
43620;SDS011;29213;50.770;7.298;2023-08-17T03:27:51;11.00;;;7.20;;
43620;SDS011;29213;50.770;7.298;2023-08-17T03:30:17;9.63;;;6.30;;
43620;SDS011;29213;50.770;7.298;2023-08-17T03:32:42;8.65;;;5.90;;
43620;SDS011;29213;50.770;7.298;2023-08-17T03:35:08;11.68;;;7.32;;
43620;SDS011;29213;50.770;7.298;2023-08-17T03:37:33;10.27;;;6.53;;
43620;SDS011;29213;50.770;7.298;2023-08-17T03:39:59;10.52;;;6.47;;
43620;SDS011;29213;50.770;7.298;2023-08-17T03:42:25;11.13;;;6.72;;
43620;SDS011;29213;50.770;7.298;2023-08-17T03:44:51;10.27;;;6.50;;
43620;SDS011;29213;50.770;7.298;2023-08-17T03:47:17;11.30;;;6.13;;
43620;SDS011;29213;50.770;7.298;2023-08-17T03:49:42;11.73;;;6.75;;
43620;SDS011;29213;50.770;7.298;2023-08-17T03:52:08;10.82;;;6.00;;
43620;SDS011;29213;50.770;7.298;2023-08-17T03:54:33;9.27;;;6.20;;
43620;SDS011;29213;50.770;7.298;2023-08-17T03:56:58;10.60;;;6.50;;
43620;SDS011;29213;50.770;7.298;2023-08-17T03:59:24;11.65;;;6.70;;
43620;SDS011;29213;50.770;7.298;2023-08-17T04:01:50;8.48;;;5.38;;
43620;SDS011;29213;50.770;7.298;2023-08-17T04:04:15;9.13;;;6.15;;
43620;SDS011;29213;50.770;7.298;2023-08-17T04:06:41;9.55;;;5.82;;
43620;SDS011;29213;50.770;7.298;2023-08-17T04:09:06;7.70;;;5.07;;
43620;SDS011;29213;50.770;7.298;2023-08-17T04:11:34;10.75;;;4.60;;
43620;SDS011;29213;50.770;7.298;2023-08-17T04:14:00;7.15;;;4.00;;
43620;SDS011;29213;50.770;7.298;2023-08-17T04:16:26;7.38;;;4.10;;
43620;SDS011;29213;50.770;7.298;2023-08-17T04:18:51;6.90;;;3.63;;
43620;SDS011;29213;50.770;7.298;2023-08-17T04:21:16;7.22;;;3.67;;
43620;SDS011;29213;50.770;7.298;2023-08-17T04:23:42;7.95;;;4.30;;
43620;SDS011;29213;50.770;7.298;2023-08-17T04:26:07;6.82;;;4.30;;
43620;SDS011;29213;50.770;7.298;2023-08-17T04:28:33;6.63;;;4.28;;
43620;SDS011;29213;50.770;7.298;2023-08-17T04:30:58;7.13;;;4.40;;
43620;SDS011;29213;50.770;7.298;2023-08-17T04:33:23;6.97;;;4.15;;
43620;SDS011;29213;50.770;7.298;2023-08-17T04:35:49;6.32;;;3.72;;
43620;SDS011;29213;50.770;7.298;2023-08-17T04:38:15;7.50;;;4.45;;
43620;SDS011;29213;50.770;7.298;2023-08-17T04:40:41;6.05;;;3.97;;
43620;SDS011;29213;50.770;7.298;2023-08-17T04:43:06;6.38;;;3.78;;
43620;SDS011;29213;50.770;7.298;2023-08-17T04:45:32;7.47;;;4.30;;
43620;SDS011;29213;50.770;7.298;2023-08-17T04:47:57;6.43;;;4.22;;
43620;SDS011;29213;50.770;7.298;2023-08-17T04:50:22;5.13;;;3.17;;
43620;SDS011;29213;50.770;7.298;2023-08-17T04:52:48;5.05;;;3.65;;
43620;SDS011;29213;50.770;7.298;2023-08-17T04:55:13;4.30;;;2.90;;
43620;SDS011;29213;50.770;7.298;2023-08-17T04:57:39;5.35;;;3.30;;
43620;SDS011;29213;50.770;7.298;2023-08-17T05:00:05;5.18;;;2.50;;
43620;SDS011;29213;50.770;7.298;2023-08-17T05:02:34;3.97;;;2.65;;
43620;SDS011;29213;50.770;7.298;2023-08-17T05:05:02;4.63;;;2.78;;
43620;SDS011;29213;50.770;7.298;2023-08-17T05:07:31;5.63;;;3.53;;
43620;SDS011;29213;50.770;7.298;2023-08-17T05:09:57;6.07;;;3.00;;
43620;SDS011;29213;50.770;7.298;2023-08-17T05:12:22;4.25;;;2.60;;
43620;SDS011;29213;50.770;7.298;2023-08-17T05:14:47;5.53;;;3.17;;
43620;SDS011;29213;50.770;7.298;2023-08-17T05:17:13;4.63;;;3.00;;
43620;SDS011;29213;50.770;7.298;2023-08-17T05:19:38;5.32;;;2.83;;
43620;SDS011;29213;50.770;7.298;2023-08-17T05:22:09;4.97;;;2.83;;
43620;SDS011;29213;50.770;7.298;2023-08-17T05:24:36;5.45;;;3.33;;
43620;SDS011;29213;50.770;7.298;2023-08-17T05:27:01;4.88;;;2.92;;
43620;SDS011;29213;50.770;7.298;2023-08-17T05:29:27;5.45;;;3.10;;
43620;SDS011;29213;50.770;7.298;2023-08-17T05:31:52;4.65;;;2.90;;
43620;SDS011;29213;50.770;7.298;2023-08-17T05:34:18;5.90;;;3.70;;
43620;SDS011;29213;50.770;7.298;2023-08-17T05:36:43;5.25;;;3.50;;
43620;SDS011;29213;50.770;7.298;2023-08-17T05:39:08;5.25;;;2.83;;
43620;SDS011;29213;50.770;7.298;2023-08-17T05:41:34;4.50;;;2.72;;
43620;SDS011;29213;50.770;7.298;2023-08-17T05:44:00;4.85;;;3.10;;
43620;SDS011;29213;50.770;7.298;2023-08-17T05:46:25;3.90;;;3.00;;
43620;SDS011;29213;50.770;7.298;2023-08-17T05:48:50;4.78;;;2.78;;
43620;SDS011;29213;50.770;7.298;2023-08-17T05:51:16;4.25;;;2.83;;
43620;SDS011;29213;50.770;7.298;2023-08-17T05:53:41;5.05;;;2.70;;
43620;SDS011;29213;50.770;7.298;2023-08-17T05:56:07;3.58;;;2.50;;
43620;SDS011;29213;50.770;7.298;2023-08-17T05:58:32;4.80;;;2.58;;
43620;SDS011;29213;50.770;7.298;2023-08-17T06:01:04;4.95;;;2.80;;
43620;SDS011;29213;50.770;7.298;2023-08-17T06:03:33;4.22;;;2.70;;
43620;SDS011;29213;50.770;7.298;2023-08-17T06:06:00;3.30;;;2.25;;
43620;SDS011;29213;50.770;7.298;2023-08-17T06:08:25;4.32;;;2.40;;
43620;SDS011;29213;50.770;7.298;2023-08-17T06:10:50;3.70;;;2.58;;
43620;SDS011;29213;50.770;7.298;2023-08-17T06:13:16;4.53;;;2.55;;
43620;SDS011;29213;50.770;7.298;2023-08-17T06:15:41;5.25;;;2.90;;
43620;SDS011;29213;50.770;7.298;2023-08-17T06:18:07;4.63;;;2.45;;
43620;SDS011;29213;50.770;7.298;2023-08-17T06:20:32;3.65;;;2.35;;
43620;SDS011;29213;50.770;7.298;2023-08-17T06:22:57;3.80;;;2.70;;
43620;SDS011;29213;50.770;7.298;2023-08-17T06:25:23;4.53;;;3.20;;
43620;SDS011;29213;50.770;7.298;2023-08-17T06:27:49;4.35;;;3.15;;
43620;SDS011;29213;50.770;7.298;2023-08-17T06:30:15;5.13;;;2.75;;
43620;SDS011;29213;50.770;7.298;2023-08-17T06:32:40;4.15;;;2.63;;
43620;SDS011;29213;50.770;7.298;2023-08-17T06:35:06;4.68;;;2.72;;
43620;SDS011;29213;50.770;7.298;2023-08-17T06:37:32;4.00;;;2.80;;
43620;SDS011;29213;50.770;7.298;2023-08-17T06:39:57;4.35;;;2.80;;
43620;SDS011;29213;50.770;7.298;2023-08-17T06:42:23;5.13;;;2.78;;
43620;SDS011;29213;50.770;7.298;2023-08-17T06:44:48;4.53;;;2.90;;
43620;SDS011;29213;50.770;7.298;2023-08-17T06:47:13;4.80;;;3.20;;
43620;SDS011;29213;50.770;7.298;2023-08-17T06:49:39;3.92;;;2.92;;
43620;SDS011;29213;50.770;7.298;2023-08-17T06:52:04;7.43;;;3.60;;
43620;SDS011;29213;50.770;7.298;2023-08-17T06:54:30;5.35;;;3.28;;
43620;SDS011;29213;50.770;7.298;2023-08-17T06:56:57;4.70;;;2.88;;
43620;SDS011;29213;50.770;7.298;2023-08-17T06:59:23;5.32;;;3.47;;
43620;SDS011;29213;50.770;7.298;2023-08-17T07:01:48;4.45;;;3.00;;
43620;SDS011;29213;50.770;7.298;2023-08-17T07:04:13;5.10;;;3.40;;
43620;SDS011;29213;50.770;7.298;2023-08-17T07:06:39;4.97;;;3.50;;
43620;SDS011;29213;50.770;7.298;2023-08-17T07:09:06;4.20;;;2.88;;
43620;SDS011;29213;50.770;7.298;2023-08-17T07:11:32;4.18;;;2.63;;
43620;SDS011;29213;50.770;7.298;2023-08-17T07:13:57;3.67;;;2.70;;
43620;SDS011;29213;50.770;7.298;2023-08-17T07:16:23;3.53;;;2.30;;
43620;SDS011;29213;50.770;7.298;2023-08-17T07:18:48;5.80;;;2.50;;
43620;SDS011;29213;50.770;7.298;2023-08-17T07:21:14;3.70;;;2.45;;
43620;SDS011;29213;50.770;7.298;2023-08-17T07:23:43;3.90;;;2.60;;
43620;SDS011;29213;50.770;7.298;2023-08-17T07:26:09;4.03;;;2.53;;
43620;SDS011;29213;50.770;7.298;2023-08-17T07:28:34;3.58;;;2.40;;
43620;SDS011;29213;50.770;7.298;2023-08-17T07:31:00;3.50;;;2.25;;
43620;SDS011;29213;50.770;7.298;2023-08-17T07:33:25;4.07;;;2.75;;
43620;SDS011;29213;50.770;7.298;2023-08-17T07:35:50;4.93;;;2.50;;
43620;SDS011;29213;50.770;7.298;2023-08-17T07:38:18;3.63;;;2.35;;
43620;SDS011;29213;50.770;7.298;2023-08-17T07:40:43;3.65;;;2.47;;
43620;SDS011;29213;50.770;7.298;2023-08-17T07:43:09;3.42;;;2.30;;
43620;SDS011;29213;50.770;7.298;2023-08-17T07:45:34;3.17;;;2.05;;
43620;SDS011;29213;50.770;7.298;2023-08-17T07:47:59;3.83;;;2.22;;
43620;SDS011;29213;50.770;7.298;2023-08-17T07:50:25;3.13;;;2.03;;
43620;SDS011;29213;50.770;7.298;2023-08-17T07:52:50;3.47;;;2.00;;
43620;SDS011;29213;50.770;7.298;2023-08-17T07:55:16;3.90;;;1.95;;
43620;SDS011;29213;50.770;7.298;2023-08-17T07:57:41;3.05;;;2.00;;
43620;SDS011;29213;50.770;7.298;2023-08-17T08:00:06;4.13;;;2.50;;
43620;SDS011;29213;50.770;7.298;2023-08-17T08:02:32;3.20;;;2.13;;
43620;SDS011;29213;50.770;7.298;2023-08-17T08:04:58;3.42;;;2.20;;
43620;SDS011;29213;50.770;7.298;2023-08-17T08:07:23;3.63;;;1.90;;
43620;SDS011;29213;50.770;7.298;2023-08-17T08:09:49;3.92;;;1.90;;
43620;SDS011;29213;50.770;7.298;2023-08-17T08:12:14;4.97;;;2.00;;
43620;SDS011;29213;50.770;7.298;2023-08-17T08:14:39;2.92;;;1.90;;
43620;SDS011;29213;50.770;7.298;2023-08-17T08:17:05;3.00;;;1.90;;
43620;SDS011;29213;50.770;7.298;2023-08-17T08:19:30;4.75;;;2.30;;
43620;SDS011;29213;50.770;7.298;2023-08-17T08:21:57;3.53;;;2.05;;
43620;SDS011;29213;50.770;7.298;2023-08-17T08:24:23;3.50;;;2.40;;
43620;SDS011;29213;50.770;7.298;2023-08-17T08:26:48;4.57;;;2.30;;
43620;SDS011;29213;50.770;7.298;2023-08-17T08:29:16;3.75;;;2.00;;
43620;SDS011;29213;50.770;7.298;2023-08-17T08:31:41;3.13;;;2.13;;
43620;SDS011;29213;50.770;7.298;2023-08-17T08:34:06;3.35;;;2.20;;
43620;SDS011;29213;50.770;7.298;2023-08-17T08:36:32;4.72;;;2.28;;
43620;SDS011;29213;50.770;7.298;2023-08-17T08:38:57;3.00;;;1.95;;
43620;SDS011;29213;50.770;7.298;2023-08-17T08:41:23;3.40;;;1.90;;
43620;SDS011;29213;50.770;7.298;2023-08-17T08:43:51;3.50;;;2.03;;
43620;SDS011;29213;50.770;7.298;2023-08-17T08:46:16;3.53;;;2.20;;
43620;SDS011;29213;50.770;7.298;2023-08-17T08:48:43;3.17;;;2.05;;
43620;SDS011;29213;50.770;7.298;2023-08-17T08:51:11;3.30;;;2.05;;
43620;SDS011;29213;50.770;7.298;2023-08-17T08:53:44;2.90;;;1.95;;
43620;SDS011;29213;50.770;7.298;2023-08-17T08:56:13;3.10;;;2.10;;
43620;SDS011;29213;50.770;7.298;2023-08-17T08:58:43;3.00;;;1.90;;
43620;SDS011;29213;50.770;7.298;2023-08-17T09:01:11;3.05;;;1.85;;
43620;SDS011;29213;50.770;7.298;2023-08-17T09:03:38;2.95;;;1.95;;
43620;SDS011;29213;50.770;7.298;2023-08-17T09:06:03;3.15;;;2.08;;
43620;SDS011;29213;50.770;7.298;2023-08-17T09:08:30;3.63;;;2.30;;
43620;SDS011;29213;50.770;7.298;2023-08-17T09:10:55;3.50;;;2.25;;
43620;SDS011;29213;50.770;7.298;2023-08-17T09:13:21;3.20;;;2.00;;
43620;SDS011;29213;50.770;7.298;2023-08-17T09:15:47;3.10;;;1.92;;
43620;SDS011;29213;50.770;7.298;2023-08-17T09:18:12;3.60;;;2.13;;
43620;SDS011;29213;50.770;7.298;2023-08-17T09:20:42;3.30;;;2.10;;
43620;SDS011;29213;50.770;7.298;2023-08-17T09:23:10;3.60;;;2.22;;
43620;SDS011;29213;50.770;7.298;2023-08-17T09:25:40;5.72;;;2.10;;
43620;SDS011;29213;50.770;7.298;2023-08-17T09:28:08;3.75;;;2.28;;
43620;SDS011;29213;50.770;7.298;2023-08-17T09:30:48;3.67;;;2.58;;
43620;SDS011;29213;50.770;7.298;2023-08-17T09:33:25;3.60;;;2.35;;
43620;SDS011;29213;50.770;7.298;2023-08-17T09:35:52;3.50;;;2.22;;
43620;SDS011;29213;50.770;7.298;2023-08-17T09:38:18;3.10;;;2.13;;
43620;SDS011;29213;50.770;7.298;2023-08-17T09:40:44;3.42;;;2.10;;
43620;SDS011;29213;50.770;7.298;2023-08-17T09:43:10;3.58;;;2.35;;
43620;SDS011;29213;50.770;7.298;2023-08-17T09:45:39;3.17;;;2.15;;
43620;SDS011;29213;50.770;7.298;2023-08-17T09:48:06;3.88;;;2.33;;
43620;SDS011;29213;50.770;7.298;2023-08-17T09:50:33;3.88;;;2.40;;
43620;SDS011;29213;50.770;7.298;2023-08-17T09:52:59;4.35;;;2.10;;
43620;SDS011;29213;50.770;7.298;2023-08-17T09:55:24;3.70;;;2.30;;
43620;SDS011;29213;50.770;7.298;2023-08-17T09:57:51;3.10;;;2.20;;
43620;SDS011;29213;50.770;7.298;2023-08-17T10:00:17;3.83;;;2.17;;
43620;SDS011;29213;50.770;7.298;2023-08-17T10:02:44;3.30;;;2.30;;
43620;SDS011;29213;50.770;7.298;2023-08-17T10:05:14;4.25;;;2.50;;
43620;SDS011;29213;50.770;7.298;2023-08-17T10:07:46;3.30;;;2.35;;
43620;SDS011;29213;50.770;7.298;2023-08-17T10:10:16;5.10;;;2.83;;
43620;SDS011;29213;50.770;7.298;2023-08-17T10:12:59;5.10;;;3.22;;
43620;SDS011;29213;50.770;7.298;2023-08-17T10:15:38;5.75;;;2.88;;
43620;SDS011;29213;50.770;7.298;2023-08-17T10:18:29;5.40;;;2.42;;
43620;SDS011;29213;50.770;7.298;2023-08-17T10:21:03;3.85;;;2.65;;
43620;SDS011;29213;50.770;7.298;2023-08-17T10:23:31;3.47;;;2.30;;
43620;SDS011;29213;50.770;7.298;2023-08-17T10:25:59;3.65;;;2.30;;
43620;SDS011;29213;50.770;7.298;2023-08-17T10:28:26;4.63;;;2.72;;
43620;SDS011;29213;50.770;7.298;2023-08-17T10:30:52;4.63;;;3.13;;
43620;SDS011;29213;50.770;7.298;2023-08-17T10:33:18;4.55;;;2.90;;
43620;SDS011;29213;50.770;7.298;2023-08-17T10:35:44;6.20;;;3.67;;
43620;SDS011;29213;50.770;7.298;2023-08-17T10:38:10;5.95;;;3.53;;
43620;SDS011;29213;50.770;7.298;2023-08-17T10:40:37;5.85;;;4.07;;
43620;SDS011;29213;50.770;7.298;2023-08-17T10:43:05;6.97;;;4.30;;
43620;SDS011;29213;50.770;7.298;2023-08-17T10:45:31;5.28;;;3.65;;
43620;SDS011;29213;50.770;7.298;2023-08-17T10:50:37;4.65;;;3.53;;
43620;SDS011;29213;50.770;7.298;2023-08-17T10:53:13;4.75;;;3.40;;
43620;SDS011;29213;50.770;7.298;2023-08-17T10:55:44;6.85;;;3.63;;
43620;SDS011;29213;50.770;7.298;2023-08-17T10:58:14;5.40;;;3.67;;
43620;SDS011;29213;50.770;7.298;2023-08-17T11:00:39;4.47;;;3.38;;
43620;SDS011;29213;50.770;7.298;2023-08-17T11:03:07;6.22;;;4.30;;
43620;SDS011;29213;50.770;7.298;2023-08-17T11:05:42;5.28;;;3.30;;
43620;SDS011;29213;50.770;7.298;2023-08-17T11:13:32;4.85;;;2.95;;
43620;SDS011;29213;50.770;7.298;2023-08-17T11:15:58;4.63;;;3.15;;
43620;SDS011;29213;50.770;7.298;2023-08-17T11:18:25;5.68;;;3.75;;
43620;SDS011;29213;50.770;7.298;2023-08-17T11:20:50;4.93;;;3.50;;
43620;SDS011;29213;50.770;7.298;2023-08-17T11:23:18;4.43;;;3.05;;
43620;SDS011;29213;50.770;7.298;2023-08-17T11:25:44;5.43;;;3.22;;
43620;SDS011;29213;50.770;7.298;2023-08-17T11:28:09;4.47;;;2.90;;
43620;SDS011;29213;50.770;7.298;2023-08-17T11:30:35;4.47;;;2.83;;
43620;SDS011;29213;50.770;7.298;2023-08-17T11:33:04;5.60;;;3.08;;
43620;SDS011;29213;50.770;7.298;2023-08-17T11:35:30;4.45;;;2.50;;
43620;SDS011;29213;50.770;7.298;2023-08-17T11:37:55;4.50;;;2.50;;
43620;SDS011;29213;50.770;7.298;2023-08-17T11:40:21;4.00;;;2.65;;
43620;SDS011;29213;50.770;7.298;2023-08-17T11:42:47;3.72;;;2.60;;
43620;SDS011;29213;50.770;7.298;2023-08-17T11:45:13;3.53;;;2.40;;
43620;SDS011;29213;50.770;7.298;2023-08-17T11:47:39;4.07;;;2.90;;
43620;SDS011;29213;50.770;7.298;2023-08-17T11:50:08;3.88;;;2.47;;
43620;SDS011;29213;50.770;7.298;2023-08-17T11:52:35;3.58;;;2.33;;
43620;SDS011;29213;50.770;7.298;2023-08-17T11:55:03;3.90;;;2.47;;
43620;SDS011;29213;50.770;7.298;2023-08-17T11:57:31;4.07;;;2.50;;
43620;SDS011;29213;50.770;7.298;2023-08-17T12:02:26;4.10;;;2.63;;
43620;SDS011;29213;50.770;7.298;2023-08-17T12:04:52;3.95;;;2.40;;
43620;SDS011;29213;50.770;7.298;2023-08-17T12:07:20;3.70;;;2.42;;
43620;SDS011;29213;50.770;7.298;2023-08-17T12:09:47;4.88;;;2.65;;
43620;SDS011;29213;50.770;7.298;2023-08-17T12:12:16;4.13;;;2.67;;
43620;SDS011;29213;50.770;7.298;2023-08-17T12:17:13;4.10;;;2.40;;
43620;SDS011;29213;50.770;7.298;2023-08-17T12:19:42;4.00;;;2.42;;
43620;SDS011;29213;50.770;7.298;2023-08-17T12:22:08;3.45;;;2.15;;
43620;SDS011;29213;50.770;7.298;2023-08-17T12:24:34;3.60;;;2.17;;
43620;SDS011;29213;50.770;7.298;2023-08-17T12:27:02;3.95;;;2.35;;
43620;SDS011;29213;50.770;7.298;2023-08-17T12:29:28;4.05;;;2.35;;
43620;SDS011;29213;50.770;7.298;2023-08-17T12:31:56;3.58;;;2.30;;
43620;SDS011;29213;50.770;7.298;2023-08-17T12:34:22;3.33;;;2.33;;
43620;SDS011;29213;50.770;7.298;2023-08-17T12:36:48;3.55;;;2.38;;
43620;SDS011;29213;50.770;7.298;2023-08-17T12:39:14;3.25;;;2.40;;
43620;SDS011;29213;50.770;7.298;2023-08-17T12:41:39;3.72;;;2.40;;
43620;SDS011;29213;50.770;7.298;2023-08-17T12:44:05;3.65;;;2.25;;
43620;SDS011;29213;50.770;7.298;2023-08-17T12:46:30;3.85;;;2.30;;
43620;SDS011;29213;50.770;7.298;2023-08-17T12:48:58;3.50;;;2.20;;
43620;SDS011;29213;50.770;7.298;2023-08-17T12:51:24;3.55;;;2.42;;
43620;SDS011;29213;50.770;7.298;2023-08-17T12:53:49;4.65;;;2.97;;
43620;SDS011;29213;50.770;7.298;2023-08-17T12:56:15;3.70;;;2.70;;
43620;SDS011;29213;50.770;7.298;2023-08-17T12:58:40;4.20;;;3.28;;
43620;SDS011;29213;50.770;7.298;2023-08-17T13:01:06;4.68;;;3.58;;
43620;SDS011;29213;50.770;7.298;2023-08-17T13:03:31;4.97;;;3.78;;
43620;SDS011;29213;50.770;7.298;2023-08-17T13:05:56;5.63;;;3.67;;
43620;SDS011;29213;50.770;7.298;2023-08-17T13:08:22;6.53;;;4.20;;
43620;SDS011;29213;50.770;7.298;2023-08-17T13:10:47;6.57;;;4.10;;
43620;SDS011;29213;50.770;7.298;2023-08-17T13:13:13;6.13;;;4.20;;
43620;SDS011;29213;50.770;7.298;2023-08-17T13:15:38;5.80;;;4.35;;
43620;SDS011;29213;50.770;7.298;2023-08-17T13:18:04;7.65;;;4.50;;
43620;SDS011;29213;50.770;7.298;2023-08-17T13:20:29;6.60;;;4.57;;
43620;SDS011;29213;50.770;7.298;2023-08-17T13:22:55;6.25;;;4.30;;
43620;SDS011;29213;50.770;7.298;2023-08-17T13:25:21;6.72;;;4.20;;
43620;SDS011;29213;50.770;7.298;2023-08-17T13:27:46;5.45;;;3.58;;
43620;SDS011;29213;50.770;7.298;2023-08-17T13:30:12;6.78;;;4.00;;
43620;SDS011;29213;50.770;7.298;2023-08-17T13:32:37;4.90;;;3.95;;
43620;SDS011;29213;50.770;7.298;2023-08-17T13:35:03;5.22;;;3.90;;
43620;SDS011;29213;50.770;7.298;2023-08-17T13:37:28;5.30;;;3.88;;
43620;SDS011;29213;50.770;7.298;2023-08-17T13:39:54;5.75;;;4.05;;
43620;SDS011;29213;50.770;7.298;2023-08-17T13:42:20;4.82;;;3.90;;
43620;SDS011;29213;50.770;7.298;2023-08-17T13:44:45;5.50;;;3.83;;
43620;SDS011;29213;50.770;7.298;2023-08-17T13:47:11;5.90;;;3.50;;
43620;SDS011;29213;50.770;7.298;2023-08-17T13:49:37;6.40;;;3.95;;
43620;SDS011;29213;50.770;7.298;2023-08-17T13:52:02;5.35;;;3.83;;
43620;SDS011;29213;50.770;7.298;2023-08-17T13:54:28;5.53;;;4.20;;
43620;SDS011;29213;50.770;7.298;2023-08-17T13:56:54;4.72;;;3.63;;
43620;SDS011;29213;50.770;7.298;2023-08-17T13:59:19;5.53;;;3.70;;
43620;SDS011;29213;50.770;7.298;2023-08-17T14:01:44;4.50;;;3.55;;
43620;SDS011;29213;50.770;7.298;2023-08-17T14:04:10;4.68;;;3.40;;
43620;SDS011;29213;50.770;7.298;2023-08-17T14:09:04;4.60;;;3.45;;
43620;SDS011;29213;50.770;7.298;2023-08-17T14:11:30;4.68;;;3.55;;
43620;SDS011;29213;50.770;7.298;2023-08-17T14:13:56;5.68;;;3.50;;
43620;SDS011;29213;50.770;7.298;2023-08-17T14:16:21;5.20;;;3.88;;
43620;SDS011;29213;50.770;7.298;2023-08-17T14:18:47;5.47;;;3.95;;
43620;SDS011;29213;50.770;7.298;2023-08-17T14:21:12;6.40;;;4.05;;
43620;SDS011;29213;50.770;7.298;2023-08-17T14:23:38;4.45;;;3.45;;
43620;SDS011;29213;50.770;7.298;2023-08-17T14:26:04;4.50;;;3.40;;
43620;SDS011;29213;50.770;7.298;2023-08-17T14:28:29;5.07;;;3.20;;
43620;SDS011;29213;50.770;7.298;2023-08-17T14:30:55;5.00;;;3.60;;
43620;SDS011;29213;50.770;7.298;2023-08-17T14:33:20;4.90;;;3.40;;
43620;SDS011;29213;50.770;7.298;2023-08-17T14:35:46;4.80;;;2.97;;
43620;SDS011;29213;50.770;7.298;2023-08-17T14:38:11;3.90;;;2.60;;
43620;SDS011;29213;50.770;7.298;2023-08-17T14:40:45;4.65;;;3.25;;
43620;SDS011;29213;50.770;7.298;2023-08-17T14:43:13;4.72;;;3.10;;
43620;SDS011;29213;50.770;7.298;2023-08-17T14:45:39;4.75;;;3.13;;
43620;SDS011;29213;50.770;7.298;2023-08-17T14:48:05;4.00;;;3.03;;
43620;SDS011;29213;50.770;7.298;2023-08-17T14:50:35;4.03;;;2.78;;
43620;SDS011;29213;50.770;7.298;2023-08-17T14:53:02;3.95;;;2.88;;
43620;SDS011;29213;50.770;7.298;2023-08-17T14:55:32;4.03;;;2.92;;
43620;SDS011;29213;50.770;7.298;2023-08-17T14:57:58;5.93;;;3.30;;
43620;SDS011;29213;50.770;7.298;2023-08-17T15:00:24;4.40;;;3.00;;
43620;SDS011;29213;50.770;7.298;2023-08-17T15:02:50;4.65;;;3.30;;
43620;SDS011;29213;50.770;7.298;2023-08-17T15:05:15;5.80;;;3.10;;